EDDE/ERF METAR and TAF weather

Enter ICAO airport designator
Station Type Date Time Source
EDDE METAR 2022/05/24 12:20 UTC NOAA

EDDE 241220Z AUTO 27011KT 240V310 9999 FEW030 18/11 Q1008 TEMPO 27015G25KT


Station Type Date Time Source
EDDE Decoded METAR 2022/05/24 12:20 UTC NOAA

Erfurt-Bindersleben, Germany (EDDE) 50-59N 010-58E 322M
May 24, 2022 - 08:20 AM EDT / 2022.05.24 1220 UTC
Wind: from the W (270 degrees) at 13 MPH (11 KT) (direction variable):0
Visibility: greater than 7 mile(s):0
Sky conditions: mostly clear
Temperature: 64 F (18 C)
Dew Point: 51 F (11 C)
Relative Humidity: 63%
Pressure (altimeter): 29.77 in. Hg (1008 hPa)
ob: EDDE 241220Z AUTO 27011KT 240V310 9999 FEW030 18/11 Q1008 TEMPO 27015G25KT
cycle: 12

Station Type Date Time Source
EDDE TAF 2022/05/24 12:57 UTC NOAA

TAF COR TAF COR EDDE 241151Z 2412/2512 27010KT 9999 SCT040 PROB30
TEMPO 2412/2414 27015G25KT
BECMG 2416/2418 25005KT

Example: see airport list